createdAt,value
2023-01-28T00:00:37.846Z,101917.28
2023-01-28T00:03:04.360Z,101919.75
2023-01-28T00:05:31.181Z,101918.06
2023-01-28T00:07:58.247Z,101932.84
2023-01-28T00:10:24.730Z,101923.09
2023-01-28T00:12:51.247Z,101926.03
2023-01-28T00:15:17.852Z,101927.19
2023-01-28T00:17:44.409Z,101924.09
2023-01-28T00:20:11.369Z,101929.41
2023-01-28T00:22:37.965Z,101928.34
2023-01-28T00:25:05.117Z,101931.00
2023-01-28T00:27:31.616Z,101930.25
2023-01-28T00:29:58.103Z,101921.31
2023-01-28T00:32:24.601Z,101914.94
2023-01-28T00:34:52.773Z,101912.25
2023-01-28T00:37:19.348Z,101910.03
2023-01-28T00:39:45.849Z,101909.03
2023-01-28T00:42:12.427Z,101913.31
2023-01-28T00:44:38.913Z,101912.63
2023-01-28T00:47:05.416Z,101917.44
2023-01-28T00:49:32.284Z,101918.38
2023-01-28T00:51:58.779Z,101911.16
2023-01-28T00:54:25.409Z,101918.31
2023-01-28T00:56:53.509Z,101920.31
2023-01-28T00:59:20.332Z,101922.03
2023-01-28T01:01:47.573Z,101924.41
2023-01-28T01:04:14.089Z,101923.75
2023-01-28T01:06:41.026Z,101922.03
2023-01-28T01:09:11.632Z,101912.94
2023-01-28T01:11:39.823Z,101914.63
2023-01-28T01:14:06.946Z,101925.31
2023-01-28T01:16:35.285Z,101926.16
2023-01-28T01:19:03.091Z,101929.13
2023-01-28T01:21:30.822Z,101930.53
2023-01-28T01:23:58.572Z,101927.72
2023-01-28T01:26:27.603Z,101938.09
2023-01-28T01:28:54.288Z,101938.34
2023-01-28T01:31:22.717Z,101931.53
2023-01-28T01:33:51.334Z,101926.38
2023-01-28T01:36:19.926Z,101921.38
2023-01-28T01:38:46.836Z,101924.72
2023-01-28T01:41:32.201Z,101924.59
2023-01-28T01:44:01.774Z,101938.75
2023-01-28T01:46:34.375Z,101936.22
2023-01-28T01:49:12.215Z,101946.41
2023-01-28T01:51:39.582Z,101940.44
2023-01-28T01:54:06.960Z,101944.31
2023-01-28T01:56:38.529Z,101937.50
2023-01-28T01:59:09.792Z,101937.53
2023-01-28T02:01:36.382Z,101937.94
2023-01-28T02:04:12.762Z,101928.00
2023-01-28T02:06:40.848Z,101937.94
2023-01-28T02:09:23.948Z,101931.69
2023-01-28T02:11:54.102Z,101925.47
2023-01-28T02:14:30.947Z,101927.31
2023-01-28T02:17:01.455Z,101917.97
2023-01-28T02:19:37.434Z,101928.66
2023-01-28T02:22:36.113Z,101921.72
2023-01-28T02:25:12.221Z,101923.97
2023-01-28T02:28:18.479Z,101921.06
2023-01-28T02:30:55.724Z,101923.72
2023-01-28T02:33:48.745Z,101920.78
2023-01-28T02:36:29.482Z,101917.34
2023-01-28T02:39:01.813Z,101922.25
2023-01-28T02:41:37.933Z,101916.22
2023-01-28T02:44:05.243Z,101918.19
2023-01-28T02:46:50.353Z,101920.91
2023-01-28T02:49:36.861Z,101923.03
2023-01-28T02:52:12.839Z,101930.88
2023-01-28T02:54:39.265Z,101938.50
2023-01-28T02:57:23.867Z,101930.50
2023-01-28T03:00:11.910Z,101935.03
2023-01-28T03:02:54.324Z,101920.63
2023-01-28T03:05:42.298Z,101914.03
2023-01-28T03:08:30.030Z,101912.75
2023-01-28T03:11:17.440Z,101915.50
2023-01-28T03:14:04.282Z,101916.66
2023-01-28T03:16:52.509Z,101911.09
2023-01-28T03:19:38.457Z,101915.88
2023-01-28T03:22:24.529Z,101923.03
2023-01-28T03:25:11.445Z,101923.44
2023-01-28T03:27:56.785Z,101922.56
2023-01-28T03:30:53.102Z,101925.28
2023-01-28T03:33:49.032Z,101925.31
2023-01-28T03:36:35.017Z,101928.38
2023-01-28T03:39:02.256Z,101936.31
2023-01-28T03:41:28.770Z,101931.34
2023-01-28T03:43:58.614Z,101925.50
2023-01-28T03:46:26.048Z,101928.06
2023-01-28T03:48:53.129Z,101925.59
2023-01-28T03:51:20.144Z,101935.34
2023-01-28T03:53:46.962Z,101926.94
2023-01-28T03:56:18.222Z,101921.41
2023-01-28T03:58:53.957Z,101927.94
2023-01-28T04:01:21.510Z,101927.34
2023-01-28T04:03:49.131Z,101932.59
2023-01-28T04:06:21.605Z,101936.38
2023-01-28T04:08:59.185Z,101935.28
2023-01-28T04:11:38.037Z,101930.34
2023-01-28T04:14:05.926Z,101935.31
2023-01-28T04:16:42.646Z,101934.56
2023-01-28T04:19:10.732Z,101936.25
2023-01-28T04:21:37.310Z,101932.31
2023-01-28T04:24:05.064Z,101937.13
2023-01-28T04:26:32.030Z,101932.72
2023-01-28T04:28:58.737Z,101936.84
2023-01-28T04:31:25.905Z,101933.09
2023-01-28T04:34:20.374Z,101936.22
2023-01-28T04:37:06.813Z,101928.34
2023-01-28T04:40:02.424Z,101925.50
2023-01-28T04:42:43.098Z,101930.84
2023-01-28T04:45:35.756Z,101924.47
2023-01-28T04:48:20.858Z,101921.69
2023-01-28T04:51:05.340Z,101939.94
2023-01-28T04:53:40.256Z,101949.53
2023-01-28T04:56:22.842Z,101950.19
2023-01-28T04:58:49.399Z,101942.72
2023-01-28T05:01:16.859Z,101936.28
2023-01-28T05:03:43.413Z,101941.19
2023-01-28T05:06:16.763Z,101933.19
2023-01-28T05:08:46.287Z,101938.00
2023-01-28T05:11:13.931Z,101935.19
2023-01-28T05:13:40.915Z,101929.34
2023-01-28T05:16:09.871Z,101922.94
2023-01-28T05:18:36.717Z,101921.94
2023-01-28T05:21:14.443Z,101917.91
2023-01-28T05:23:42.726Z,101913.81
2023-01-28T05:26:09.513Z,101912.09
2023-01-28T05:28:36.366Z,101908.59
2023-01-28T05:31:04.217Z,101904.00
2023-01-28T05:33:30.983Z,101913.94
2023-01-28T05:35:57.640Z,101914.44
2023-01-28T05:38:24.231Z,101917.22
2023-01-28T05:40:51.312Z,101929.84
2023-01-28T05:43:17.944Z,101923.81
2023-01-28T05:46:00.827Z,101935.00
2023-01-28T05:48:33.729Z,101935.38
2023-01-28T05:51:06.010Z,101930.13
2023-01-28T05:53:37.717Z,101930.06
2023-01-28T05:56:04.514Z,101928.19
2023-01-28T05:58:32.557Z,101922.63
2023-01-28T06:01:02.402Z,101919.88
2023-01-28T06:03:37.117Z,101917.81
2023-01-28T06:06:03.947Z,101918.25
2023-01-28T06:08:31.635Z,101909.63
2023-01-28T06:10:59.293Z,101913.72
2023-01-28T06:13:26.690Z,101911.97
2023-01-28T06:16:16.353Z,101914.00
2023-01-28T06:18:52.261Z,101917.84
2023-01-28T06:21:19.080Z,101918.78
2023-01-28T06:23:46.129Z,101916.72
2023-01-28T06:26:13.529Z,101917.66
2023-01-28T06:28:43.512Z,101929.41
2023-01-28T06:31:10.041Z,101924.44
2023-01-28T06:33:36.603Z,101920.41
2023-01-28T06:36:04.266Z,101928.31
2023-01-28T06:38:30.820Z,101928.69
2023-01-28T06:40:58.148Z,101921.41
2023-01-28T06:43:28.432Z,101924.78
2023-01-28T06:45:55.209Z,101916.97
2023-01-28T06:48:21.858Z,101911.59
2023-01-28T06:50:48.985Z,101906.09
2023-01-28T06:53:17.105Z,101897.28
2023-01-28T06:55:44.174Z,101899.34
2023-01-28T06:58:10.908Z,101903.34
2023-01-28T07:00:37.804Z,101921.88
2023-01-28T07:03:08.422Z,101913.59
2023-01-28T07:05:37.885Z,101919.09
2023-01-28T07:08:04.829Z,101921.78
2023-01-28T07:10:33.976Z,101931.06
2023-01-28T07:13:00.974Z,101922.91
2023-01-28T07:15:30.347Z,101922.47
2023-01-28T07:17:59.819Z,101913.28
2023-01-28T07:20:26.848Z,101920.03
2023-01-28T07:22:55.058Z,101922.13
2023-01-28T07:25:31.978Z,101927.75
2023-01-28T07:28:00.122Z,101935.06
2023-01-28T07:30:30.658Z,101933.19
2023-01-28T07:33:02.001Z,101926.28
2023-01-28T07:35:31.452Z,101936.09
2023-01-28T07:38:02.827Z,101931.78
2023-01-28T07:40:30.349Z,101947.38
2023-01-28T07:42:59.667Z,101949.38
2023-01-28T07:48:47.870Z,101956.19
2023-01-28T07:51:14.751Z,101958.06
2023-01-28T07:53:50.106Z,101963.91
2023-01-28T07:56:18.605Z,101975.44
2023-01-28T07:58:45.860Z,101977.72
2023-01-28T08:01:13.877Z,101970.53
2023-01-28T08:03:40.637Z,101976.09
2023-01-28T08:06:09.819Z,101979.75
2023-01-28T08:08:44.874Z,101981.72
2023-01-28T08:11:14.049Z,101981.34
2023-01-28T08:13:48.041Z,101984.28
2023-01-28T08:16:58.621Z,101985.50
2023-01-28T08:19:26.168Z,101990.53
2023-01-28T08:21:53.115Z,102000.03
2023-01-28T08:24:29.128Z,102008.84
2023-01-28T08:26:58.573Z,102011.44
2023-01-28T08:29:28.153Z,102018.72
2023-01-28T08:32:10.092Z,102021.69
2023-01-28T08:34:36.973Z,102015.03
2023-01-28T08:37:05.914Z,102011.25
2023-01-28T08:39:32.733Z,102014.59
2023-01-28T08:41:59.422Z,102018.38
2023-01-28T08:44:26.095Z,102015.09
2023-01-28T08:46:52.948Z,102023.78
2023-01-28T08:49:25.068Z,102021.03
2023-01-28T08:51:52.226Z,102020.94
2023-01-28T08:54:19.444Z,102034.53
2023-01-28T08:56:49.520Z,102034.00
2023-01-28T08:59:16.613Z,102025.91
2023-01-28T09:01:43.900Z,102030.38
2023-01-28T09:04:13.388Z,102023.03
2023-01-28T09:06:40.259Z,102030.06
2023-01-28T09:09:12.164Z,102043.28
2023-01-28T09:11:41.702Z,102046.00
2023-01-28T09:14:08.741Z,102049.91
2023-01-28T09:16:47.168Z,102054.84
2023-01-28T09:19:17.236Z,102049.00
2023-01-28T09:21:47.171Z,102039.41
2023-01-28T09:24:17.121Z,102041.31
2023-01-28T09:26:44.673Z,102039.53
2023-01-28T09:29:16.867Z,102037.78
2023-01-28T09:31:43.822Z,102034.31
2023-01-28T09:34:10.981Z,102044.34
2023-01-28T09:36:44.000Z,102039.09
2023-01-28T09:39:10.955Z,102048.22
2023-01-28T09:42:02.371Z,102046.03
2023-01-28T09:45:00.542Z,102053.03
2023-01-28T09:47:45.219Z,102052.97
2023-01-28T09:50:27.657Z,102053.28
2023-01-28T09:53:24.538Z,102053.03
2023-01-28T09:55:57.762Z,102069.66
2023-01-28T09:58:33.573Z,102083.75
2023-01-28T10:01:59.047Z,102093.69
2023-01-28T10:05:16.881Z,102109.84
2023-01-28T10:08:41.786Z,102117.19
2023-01-28T10:18:16.606Z,102108.16
2023-01-28T10:21:40.916Z,102100.41
2023-01-28T10:25:12.735Z,102098.16
2023-01-28T10:28:59.922Z,102099.66
2023-01-28T10:37:10.279Z,102078.66
2023-01-28T10:40:00.858Z,102083.13
2023-01-28T10:43:05.835Z,102084.25
2023-01-28T10:45:42.508Z,102080.63
2023-01-28T10:48:20.411Z,102075.31
2023-01-28T10:51:00.215Z,102090.28
2023-01-28T10:53:43.833Z,102094.59
2023-01-28T10:56:15.879Z,102097.16
2023-01-28T10:58:58.793Z,102080.16
2023-01-28T11:01:37.912Z,102054.03
2023-01-28T11:04:04.724Z,102043.78
2023-01-28T11:06:36.219Z,102048.25
2023-01-28T11:09:03.040Z,102063.16
2023-01-28T11:11:30.677Z,102044.31
2023-01-28T11:14:00.423Z,102039.50
2023-01-28T11:16:32.061Z,102041.88
2023-01-28T11:19:07.016Z,102045.13
2023-01-28T11:21:35.489Z,102043.84
2023-01-28T11:24:24.271Z,102028.66
2023-01-28T11:26:56.490Z,102019.97
2023-01-28T11:29:40.442Z,102007.75
2023-01-28T11:32:33.179Z,102002.03
2023-01-28T11:35:48.851Z,101987.09
2023-01-28T11:38:26.004Z,101966.94
2023-01-28T11:41:06.209Z,101950.44
2023-01-28T11:44:06.137Z,101948.25
2023-01-28T11:46:56.511Z,101946.06
2023-01-28T11:53:40.469Z,101901.91
2023-01-28T12:06:04.036Z,101901.38
2023-01-28T12:09:16.557Z,101892.22
2023-01-28T12:12:30.770Z,101891.50
2023-01-28T12:15:26.846Z,101873.72
2023-01-28T12:18:27.405Z,101871.28
2023-01-28T12:21:11.327Z,101879.47
2023-01-28T12:23:56.395Z,101867.53
2023-01-28T12:26:49.123Z,101881.13
2023-01-28T12:29:26.251Z,101888.56
2023-01-28T12:32:13.421Z,101886.91
2023-01-28T12:34:52.379Z,101891.47
2023-01-28T12:37:40.790Z,101889.66
2023-01-28T12:40:40.130Z,101900.75
2023-01-28T12:43:18.838Z,101911.97
2023-01-28T12:46:00.757Z,101920.53
2023-01-28T12:48:38.266Z,101929.78
2023-01-28T12:51:15.465Z,101932.63
2023-01-28T12:54:08.960Z,101927.84
2023-01-28T12:56:42.090Z,101934.53
2023-01-28T12:59:17.097Z,101930.69
2023-01-28T13:02:11.608Z,101925.66
2023-01-28T13:04:51.333Z,101926.69
2023-01-28T13:07:25.668Z,101908.03
2023-01-28T13:10:00.120Z,101910.59
2023-01-28T13:12:27.079Z,101916.53
2023-01-28T13:14:54.374Z,101905.06
2023-01-28T13:17:33.311Z,101904.59
2023-01-28T13:20:00.127Z,101893.56
2023-01-28T13:22:35.144Z,101877.78
2023-01-28T13:25:20.401Z,101872.00
2023-01-28T13:28:02.176Z,101874.38
2023-01-28T13:30:31.957Z,101863.03
2023-01-28T13:33:04.885Z,101856.16
2023-01-28T13:35:37.706Z,101841.72
2023-01-28T13:38:15.063Z,101842.59
2023-01-28T13:40:41.886Z,101838.75
2023-01-28T13:43:39.441Z,101830.31
2023-01-28T13:46:26.048Z,101836.47
2023-01-28T13:48:56.109Z,101836.66
2023-01-28T13:51:27.102Z,101839.31
2023-01-28T13:54:13.956Z,101828.94
2023-01-28T13:56:59.130Z,101819.59
2023-01-28T13:59:37.882Z,101815.63
2023-01-28T14:02:30.378Z,101847.75
2023-01-28T14:05:18.678Z,101868.31
2023-01-28T14:08:20.794Z,101871.50
2023-01-28T14:11:16.557Z,101875.75
2023-01-28T14:14:15.075Z,101873.72
2023-01-28T14:16:52.215Z,101895.00
2023-01-28T14:19:27.451Z,101890.84
2023-01-28T14:21:54.621Z,101903.31
2023-01-28T14:24:21.446Z,101918.34
2023-01-28T14:27:05.142Z,101913.84
2023-01-28T14:29:49.052Z,101920.41
2023-01-28T14:32:24.322Z,101919.84
2023-01-28T14:34:51.093Z,101921.66
2023-01-28T14:37:24.952Z,101912.47
2023-01-28T14:40:11.644Z,101914.75
2023-01-28T14:42:45.403Z,101913.50
2023-01-28T14:45:50.805Z,101906.00
2023-01-28T14:48:20.505Z,101919.19
2023-01-28T14:50:58.876Z,101919.97
2023-01-28T14:53:46.343Z,101918.13
2023-01-28T14:56:13.021Z,101923.19
2023-01-28T14:58:44.706Z,101911.91
2023-01-28T15:01:29.220Z,101893.88
2023-01-28T15:03:56.155Z,101883.06
2023-01-28T15:06:24.811Z,101894.00
2023-01-28T15:08:53.294Z,101889.31
2023-01-28T15:11:25.863Z,101887.97
2023-01-28T15:13:58.210Z,101887.91
2023-01-28T15:16:31.493Z,101884.47
2023-01-28T15:19:01.275Z,101889.38
2023-01-28T15:21:30.052Z,101885.94
2023-01-28T15:23:58.510Z,101900.00
2023-01-28T15:26:31.486Z,101915.38
2023-01-28T15:28:58.353Z,101918.59
2023-01-28T15:31:34.287Z,101914.81
2023-01-28T15:34:15.534Z,101901.88
2023-01-28T15:36:42.930Z,101906.31
2023-01-28T15:39:21.597Z,101912.41
2023-01-28T15:41:57.436Z,101928.91
2023-01-28T15:44:37.587Z,101930.13
2023-01-28T15:47:39.118Z,101924.56
2023-01-28T15:50:07.204Z,101925.66
2023-01-28T15:52:40.697Z,101925.06
2023-01-28T15:55:08.558Z,101928.28
2023-01-28T15:57:35.636Z,101922.88
2023-01-28T16:00:08.548Z,101914.34
2023-01-28T16:02:49.770Z,101910.31
2023-01-28T16:05:54.742Z,101892.38
2023-01-28T16:08:28.288Z,101889.50
2023-01-28T16:10:56.519Z,101889.25
2023-01-28T16:13:25.936Z,101891.44
2023-01-28T16:15:54.312Z,101897.47
2023-01-28T16:18:29.858Z,101896.66
2023-01-28T16:20:57.910Z,101898.00
2023-01-28T16:23:27.674Z,101890.09
2023-01-28T16:26:20.167Z,101897.84
2023-01-28T16:28:46.989Z,101895.59
2023-01-28T16:31:15.128Z,101901.38
2023-01-28T16:33:41.745Z,101901.22
2023-01-28T16:36:13.899Z,101898.94
2023-01-28T16:38:41.005Z,101896.56
2023-01-28T16:41:31.442Z,101907.59
2023-01-28T16:44:02.314Z,101904.34
2023-01-28T16:46:28.974Z,101888.75
2023-01-28T16:48:55.486Z,101902.09
2023-01-28T16:51:22.109Z,101892.19
2023-01-28T16:53:50.682Z,101880.88
2023-01-28T16:56:43.963Z,101888.88
2023-01-28T16:59:11.790Z,101879.56
2023-01-28T17:01:38.597Z,101880.69
2023-01-28T17:04:11.582Z,101887.22
2023-01-28T17:06:39.691Z,101890.88
2023-01-28T17:09:06.510Z,101891.78
2023-01-28T17:11:34.653Z,101884.81
2023-01-28T17:14:02.286Z,101883.84
2023-01-28T17:16:28.990Z,101894.56
2023-01-28T17:18:55.622Z,101887.25
2023-01-28T17:21:22.448Z,101879.66
2023-01-28T17:23:51.208Z,101884.03
2023-01-28T17:26:17.835Z,101878.59
2023-01-28T17:28:44.472Z,101875.47
2023-01-28T17:31:13.990Z,101888.16
2023-01-28T17:33:41.444Z,101897.00
2023-01-28T17:36:08.908Z,101903.69
2023-01-28T17:38:36.011Z,101890.66
2023-01-28T17:41:08.166Z,101899.00
2023-01-28T17:43:35.051Z,101920.19
2023-01-28T17:46:10.427Z,101926.84
2023-01-28T17:48:37.041Z,101924.13
2023-01-28T17:51:03.981Z,101924.75
2023-01-28T17:53:30.532Z,101924.88
2023-01-28T17:55:57.517Z,101912.31
2023-01-28T17:58:24.190Z,101907.63
2023-01-28T18:00:50.722Z,101914.97
2023-01-28T18:03:17.270Z,101908.13
2023-01-28T18:05:43.801Z,101912.09
2023-01-28T18:08:10.315Z,101913.44
2023-01-28T18:10:37.149Z,101918.97
2023-01-28T18:13:03.708Z,101927.56
2023-01-28T18:15:30.809Z,101923.59
2023-01-28T18:17:57.343Z,101914.06
2023-01-28T18:20:24.140Z,101914.00
2023-01-28T18:22:50.915Z,101902.69
2023-01-28T18:25:19.680Z,101909.66
2023-01-28T18:27:47.820Z,101919.09
2023-01-28T18:30:16.769Z,101919.25
2023-01-28T18:32:43.338Z,101932.13
2023-01-28T18:35:11.992Z,101936.34
2023-01-28T18:37:39.882Z,101931.03
2023-01-28T18:40:07.025Z,101934.59
2023-01-28T18:42:33.619Z,101943.28
2023-01-28T18:45:00.397Z,101945.44
2023-01-28T18:47:28.425Z,101941.81
2023-01-28T18:49:54.951Z,101938.78
2023-01-28T18:52:21.467Z,101936.25
2023-01-28T18:54:48.196Z,101936.13
2023-01-28T18:57:14.700Z,101934.59
2023-01-28T18:59:41.195Z,101939.03
2023-01-28T19:02:13.412Z,101934.81
2023-01-28T19:04:40.336Z,101940.47
2023-01-28T19:07:09.863Z,101940.72
2023-01-28T19:09:38.101Z,101929.53
2023-01-28T19:12:05.515Z,101928.31
2023-01-28T19:14:32.136Z,101919.81
2023-01-28T19:16:58.876Z,101908.44
2023-01-28T19:19:25.580Z,101898.94
2023-01-28T19:21:52.839Z,101888.44
2023-01-28T19:24:20.028Z,101875.47
2023-01-28T19:26:46.608Z,101876.41
2023-01-28T19:29:15.936Z,101877.69
2023-01-28T19:31:44.349Z,101877.34
2023-01-28T19:34:11.525Z,101870.59
2023-01-28T19:36:38.910Z,101870.34
2023-01-28T19:39:08.589Z,101885.13
2023-01-28T19:41:36.030Z,101869.09
2023-01-28T19:44:03.465Z,101884.81
2023-01-28T19:46:30.225Z,101882.06
2023-01-28T19:48:57.153Z,101889.25
2023-01-28T19:51:24.474Z,101894.63
2023-01-28T19:53:52.841Z,101897.47
2023-01-28T19:56:21.064Z,101886.41
2023-01-28T19:58:47.897Z,101883.84
2023-01-28T20:01:17.970Z,101883.91
2023-01-28T20:03:45.742Z,101900.91
2023-01-28T20:06:15.269Z,101898.06
2023-01-28T20:08:43.218Z,101897.25
2023-01-28T20:11:14.897Z,101898.56
2023-01-28T20:13:43.981Z,101896.22
2023-01-28T20:16:23.998Z,101898.31
2023-01-28T20:18:52.682Z,101911.22
2023-01-28T20:21:20.408Z,101907.19
2023-01-28T20:23:49.205Z,101906.78
2023-01-28T20:26:16.903Z,101902.69
2023-01-28T20:28:43.492Z,101900.28
2023-01-28T20:31:10.887Z,101913.38
2023-01-28T20:33:38.217Z,101917.44
2023-01-28T20:36:08.009Z,101916.09
2023-01-28T20:38:35.618Z,101908.97
2023-01-28T20:41:10.457Z,101902.78
2023-01-28T20:43:38.531Z,101905.13
2023-01-28T20:46:07.749Z,101888.41
2023-01-28T20:48:34.712Z,101885.38
2023-01-28T20:51:09.621Z,101882.50
2023-01-28T20:53:37.128Z,101874.53
2023-01-28T20:56:04.230Z,101880.88
2023-01-28T20:58:31.819Z,101887.38
2023-01-28T21:00:58.391Z,101876.09
2023-01-28T21:03:25.466Z,101879.09
2023-01-28T21:05:52.355Z,101880.69
2023-01-28T21:08:19.154Z,101887.25
2023-01-28T21:10:46.195Z,101877.75
2023-01-28T21:13:14.043Z,101867.72
2023-01-28T21:15:40.785Z,101871.44
2023-01-28T21:18:07.441Z,101872.28
2023-01-28T21:20:34.021Z,101871.19
2023-01-28T21:23:01.335Z,101870.31
2023-01-28T21:25:28.033Z,101865.25
2023-01-28T21:27:55.111Z,101871.19
2023-01-28T21:30:21.879Z,101865.84
2023-01-28T21:32:48.381Z,101864.06
2023-01-28T21:35:14.983Z,101864.50
2023-01-28T21:37:46.087Z,101872.53
2023-01-28T21:40:12.696Z,101877.63
2023-01-28T21:42:39.208Z,101869.09
2023-01-28T21:45:06.463Z,101865.56
2023-01-28T21:47:32.986Z,101863.38
2023-01-28T21:50:00.648Z,101870.56
2023-01-28T21:52:27.614Z,101864.69
2023-01-28T21:54:54.149Z,101857.22
2023-01-28T21:57:20.669Z,101860.25
2023-01-28T21:59:47.168Z,101855.72
2023-01-28T22:02:14.759Z,101859.53
2023-01-28T22:04:43.591Z,101857.88
2023-01-28T22:07:12.536Z,101852.38
2023-01-28T22:09:39.986Z,101852.59
2023-01-28T22:12:08.047Z,101858.94
2023-01-28T22:14:39.274Z,101862.31
2023-01-28T22:17:08.910Z,101869.50
2023-01-28T22:19:35.467Z,101864.75
2023-01-28T22:22:01.966Z,101858.09
2023-01-28T22:24:29.004Z,101859.88
2023-01-28T22:26:55.971Z,101851.16
2023-01-28T22:29:24.932Z,101854.06
2023-01-28T22:31:53.646Z,101857.75
2023-01-28T22:34:21.202Z,101858.03
2023-01-28T22:36:49.452Z,101858.22
2023-01-28T22:39:16.710Z,101858.03
2023-01-28T22:41:44.378Z,101849.16
2023-01-28T22:44:11.056Z,101846.63
2023-01-28T22:46:37.918Z,101849.56
2023-01-28T22:49:05.545Z,101841.28
2023-01-28T22:51:34.504Z,101850.22
2023-01-28T22:54:01.905Z,101850.44
2023-01-28T22:56:29.661Z,101842.94
2023-01-28T22:58:58.146Z,101832.78
2023-01-28T23:01:25.217Z,101830.91
2023-01-28T23:03:52.860Z,101824.06
2023-01-28T23:06:21.678Z,101834.97
2023-01-28T23:08:48.697Z,101831.06
2023-01-28T23:11:24.858Z,101818.97
2023-01-28T23:14:11.702Z,101815.16
2023-01-28T23:16:56.976Z,101830.81
2023-01-28T23:19:42.128Z,101824.78
2023-01-28T23:22:33.241Z,101812.56
2023-01-28T23:25:00.415Z,101818.97
2023-01-28T23:27:27.157Z,101818.25
2023-01-28T23:29:53.699Z,101812.41
2023-01-28T23:32:21.260Z,101807.75
2023-01-28T23:34:47.798Z,101810.16
2023-01-28T23:37:14.856Z,101804.03
2023-01-28T23:39:42.340Z,101801.22
2023-01-28T23:42:14.522Z,101804.38
2023-01-28T23:44:41.313Z,101795.00
2023-01-28T23:47:08.673Z,101789.81
2023-01-28T23:49:35.437Z,101789.84
2023-01-28T23:52:03.938Z,101792.84
2023-01-28T23:54:31.487Z,101789.53
2023-01-28T23:56:58.678Z,101776.16
2023-01-28T23:59:25.244Z,101777.88
